createdAt,value
2023-01-27T00:09:08.660Z,9
2023-01-27T00:19:14.479Z,8
2023-01-27T00:29:20.268Z,8
2023-01-27T00:39:25.490Z,8
2023-01-27T00:49:29.372Z,8
2023-01-27T00:59:36.409Z,7
2023-01-27T01:09:42.762Z,8
2023-01-27T01:19:46.870Z,6
2023-01-27T01:29:51.323Z,8
2023-01-27T01:39:59.620Z,7
2023-01-27T01:50:06.652Z,6
2023-01-27T02:00:14.744Z,6
2023-01-27T02:10:19.899Z,7
2023-01-27T02:20:25.349Z,7
2023-01-27T02:30:30.308Z,6
2023-01-27T02:40:36.961Z,6
2023-01-27T02:50:41.409Z,7
2023-01-27T03:00:47.442Z,7
2023-01-27T03:10:53.212Z,8
2023-01-27T03:20:59.132Z,7
2023-01-27T03:31:06.576Z,6
2023-01-27T03:41:12.422Z,7
2023-01-27T03:51:19.547Z,7
2023-01-27T04:01:24.161Z,8
2023-01-27T04:11:31.815Z,7
2023-01-27T04:21:34.562Z,6
2023-01-27T04:31:40.458Z,9
2023-01-27T04:41:47.206Z,7
2023-01-27T04:51:51.047Z,7
2023-01-27T05:01:58.686Z,6
2023-01-27T05:12:05.440Z,8
2023-01-27T05:22:10.116Z,7
2023-01-27T05:32:16.404Z,7
2023-01-27T05:42:21.498Z,7
2023-01-27T05:52:26.565Z,7
2023-01-27T06:02:34.181Z,7
2023-01-27T06:12:42.008Z,9
2023-01-27T06:22:47.631Z,11
2023-01-27T06:32:53.911Z,16
2023-01-27T06:43:00.095Z,18
2023-01-27T06:53:05.391Z,18
2023-01-27T07:03:10.954Z,19
2023-01-27T07:13:15.698Z,13
2023-01-27T07:23:19.872Z,17
2023-01-27T07:33:24.918Z,18
2023-01-27T07:43:31.396Z,15
2023-01-27T07:53:36.690Z,17
2023-01-27T08:03:43.104Z,14
2023-01-27T08:13:48.931Z,19
2023-01-27T08:23:53.659Z,13
2023-01-27T08:33:58.400Z,15
2023-01-27T08:44:06.017Z,15
2023-01-27T08:54:10.780Z,12
2023-01-27T09:04:15.101Z,15
2023-01-27T09:14:21.797Z,12
2023-01-27T09:24:25.749Z,19
2023-01-27T09:34:32.027Z,12
2023-01-27T09:44:36.610Z,11
2023-01-27T09:54:41.060Z,12
2023-01-27T10:04:48.114Z,13
2023-01-27T10:14:53.900Z,12
2023-01-27T10:24:59.955Z,13
2023-01-27T10:35:05.824Z,11
2023-01-27T10:45:11.303Z,11
2023-01-27T10:55:17.437Z,18
2023-01-27T11:05:25.151Z,11
2023-01-27T11:15:30.085Z,10
2023-01-27T11:25:35.770Z,19
2023-01-27T11:35:42.124Z,11
2023-01-27T11:45:46.372Z,12
2023-01-27T11:55:53.274Z,13
2023-01-27T12:05:59.034Z,13
2023-01-27T12:16:05.577Z,13
2023-01-27T12:26:10.258Z,13
2023-01-27T12:36:18.212Z,14
2023-01-27T12:46:24.289Z,11
2023-01-27T12:56:30.024Z,18
2023-01-27T13:06:37.114Z,16
2023-01-27T13:16:42.764Z,16
2023-01-27T13:26:48.966Z,15
2023-01-27T13:36:54.959Z,19
2023-01-27T13:47:04.701Z,11
2023-01-27T13:57:09.431Z,11
2023-01-27T14:07:16.215Z,10
2023-01-27T14:17:22.010Z,10
2023-01-27T14:27:27.206Z,11
2023-01-27T14:37:32.127Z,13
2023-01-27T14:47:39.280Z,14
2023-01-27T14:57:43.184Z,17
2023-01-27T15:07:48.644Z,14
2023-01-27T15:17:53.028Z,17
2023-01-27T15:27:58.979Z,18
2023-01-27T15:38:04.686Z,17
2023-01-27T15:48:10.766Z,17
2023-01-27T15:58:17.456Z,16
2023-01-27T16:08:22.311Z,17
2023-01-27T16:18:28.135Z,18
2023-01-27T16:28:35.418Z,21
2023-01-27T16:38:41.145Z,22
2023-01-27T16:48:47.389Z,20
2023-01-27T16:58:56.382Z,20
2023-01-27T17:08:57.479Z,22
2023-01-27T17:19:21.489Z,23
2023-01-27T17:29:14.301Z,20
2023-01-27T17:39:19.778Z,24
2023-01-27T17:49:24.579Z,20
2023-01-27T17:59:30.273Z,19
2023-01-27T18:09:35.133Z,22
2023-01-27T18:19:40.758Z,26
2023-01-27T18:29:46.513Z,28
2023-01-27T18:39:53.687Z,25
2023-01-27T18:50:00.721Z,26
2023-01-27T19:00:06.523Z,23
2023-01-27T19:10:14.172Z,25
2023-01-27T19:20:18.216Z,25
2023-01-27T19:30:23.198Z,25
2023-01-27T19:40:29.582Z,24
2023-01-27T19:50:36.186Z,27
2023-01-27T20:00:39.745Z,25
2023-01-27T20:10:47.404Z,25
2023-01-27T20:20:52.926Z,21
2023-01-27T20:30:57.087Z,23
2023-01-27T20:41:02.425Z,26
2023-01-27T20:51:07.812Z,21
2023-01-27T21:01:12.216Z,25
2023-01-27T21:11:17.002Z,24
2023-01-27T21:21:22.429Z,27
2023-01-27T21:31:28.817Z,24
2023-01-27T21:41:33.421Z,23
2023-01-27T21:51:38.181Z,23
2023-01-27T22:01:42.910Z,25
2023-01-27T22:11:48.660Z,24
2023-01-27T22:21:54.698Z,23
2023-01-27T22:31:58.257Z,23
2023-01-27T22:42:03.169Z,24
2023-01-27T22:52:09.405Z,25
2023-01-27T23:02:15.088Z,21
2023-01-27T23:12:19.654Z,22
2023-01-27T23:22:24.498Z,22
2023-01-27T23:32:31.148Z,18
2023-01-27T23:42:37.951Z,21
2023-01-27T23:52:44.449Z,19
